• Join FlightAware (Why Join?)
  • Login
  • US Flag 
05:22PM EST


 

Airport Tracker/Info


-or-


 

Live Flight TrackerFlight Track Log ✈ N244A ✈ 12-Mar-2014 ✈ KBWI - KBOS

Flight Track Log - Related Links

Times and Time Zones

All times are in EDT time to prevent confusion due to time zone crossing. See the N244A flight status page for this flight to view local times or setup timezone preferences in your user account.

Time Position Orientation Groundspeed Altitude Reporting Facility
EDT Latitude Longitude Course Direction KTS MPH feet Rate Location/Type
06:38PM 39.2278 -76.6286 95° East 161 185 2,300  Level Washington Center
06:39PM 39.2222 -76.5428 95° East 176 203 5,100 3,000 Climbing Washington Center
06:40PM 39.2022 -76.4406 104° East 230 265 8,400 2,820 Climbing Washington Center
06:41PM 39.1717 -76.3253 109° East 286 329 10,700 2,220 Climbing Washington Center
06:42PM 39.1517 -76.1831 100° East 343 395 13,000 2,580 Climbing Washington Center
06:43PM 39.1731 -76.0494 78° East 417 480 16,000 3,000 Climbing Washington Center
06:44PM 39.1942 -75.8994 80° East 417 480 18,900 2,280 Climbing Washington Center
06:45PM 39.2758 -75.7767 49° Northeast 417 480 20,600 1,440 Climbing Washington Center
06:46PM 39.3678 -75.6533 46° Northeast 436 502 21,900 1,200 Climbing Washington Center
06:47PM 39.4678 -75.5269 44° Northeast 471 542 23,000 1,020 Climbing Washington Center
06:49PM 39.6783 -75.2483 45° Northeast 526 605 25,100 1,020 Climbing New York Center
06:50PM 39.7778 -75.0981 49° Northeast 543 625 26,200 1,020 Climbing New York Center
06:51PM 39.8811 -74.9531 47° Northeast 548 631 27,200 960 Climbing New York Center
06:52PM 39.9861 -74.8075 47° Northeast 548 631 28,200 780 Climbing New York Center
06:53PM 40.0872 -74.6561 49° Northeast 548 631 28,800 360 Climbing New York Center
06:54PM 40.2014 -74.4750 50° Northeast 559 643 29,000 60 Climbing New York Center
06:55PM 40.3083 -74.3175 48° Northeast 575 662 29,000  Level New York Center
06:57PM 40.5033 -74.0128 50° Northeast 578 665 29,000 -300 Level Boston Center
06:58PM 40.6264 -73.8136 51° Northeast 582 670 28,100 -840 Descending Boston Center
06:59PM 40.7156 -73.6706 51° Northeast 578 665 27,400 -600 Descending Boston Center
07:00PM 40.8300 -73.4889 50° Northeast 570 656 27,000 -360 Descending Boston Center
07:01PM 40.9356 -73.3292 49° Northeast 563 648 26,700 -1,080 Descending Boston Center
07:02PM 41.0381 -73.1786 48° Northeast 555 639 24,900 -1,740 Descending Boston Center
07:03PM 41.1303 -73.0192 52° Northeast 552 635 23,200 -960 Descending Boston Center
07:04PM 41.1972 -72.8419 63° Northeast 542 624 23,000 -120 Descending Boston Center
07:05PM 41.2642 -72.6608 64° Northeast 548 631 23,000  Level Boston Center
07:06PM 41.3375 -72.4711 63° Northeast 553 636 23,000 -600 Level Boston Center
07:07PM 41.4025 -72.2939 64° Northeast 537 618 21,900 -1,740 Descending Boston Center
07:08PM 41.4683 -72.1189 63° Northeast 530 610 19,500 -2,880 Descending Boston Center
07:09PM 41.5397 -71.9306 63° Northeast 517 595 16,100 -2,880 Descending Boston Center
07:10PM 41.6008 -71.7661 64° Northeast 499 574 13,700 -1,920 Descending Boston Center
07:11PM 41.6561 -71.6189 63° Northeast 453 521 12,200 -960 Descending Boston Center
07:12PM 41.7103 -71.4881 61° Northeast 377 434 11,800 -600 Descending Boston Center
07:13PM 41.7564 -71.3844 59° Northeast 329 379 11,000 -420 Descending Boston Center
07:14PM 41.7981 -71.2833 61° Northeast 312 359 11,000 -300 Level Boston Center
07:15PM 41.8308 -71.1758 68° East 315 362 10,400 -960 Descending Boston Center
07:16PM 41.8531 -71.0617 75° East 318 366 9,100 -1,200 Descending Boston Center
07:17PM 41.8803 -70.9406 73° East 316 364 8,000 -600 Descending Boston Center
07:18PM 41.9000 -70.8333 76° East 278 320 8,000  Level KA90
07:19PM 41.9272 -70.7453 67° East 270 311 8,000  Level Boston Center
07:20PM 41.9439 -70.6483 77° East 275 316 8,100 -240 Climbing Boston Center
07:21PM 42.0100 -70.5842 36° Northeast 293 337 7,600 -840 Descending Boston Center
07:22PM 42.0833 -70.5333 27° Northeast 275 316 6,500 -1,380 Descending KA90
07:23PM 42.1167 -70.5667 323° Northwest 196 226 5,000 -1,440 Descending KA90
07:24PM 42.1500 -70.6333 304° West 201 231 3,800 -1,080 Descending KA90
07:25PM 42.1833 -70.6833 312° West 186 214 3,000 -420 Descending KA90
07:26PM 42.2000 -70.7500 289° West 192 221 3,000  Level KA90
07:27PM 42.2358 -70.8217 304° West 193 222 3,000 -60 Level Boston Center
07:28PM 42.2778 -70.8858 311° West 208 239 2,900 -540 Descending Boston Center
07:29PM 42.3000 -70.9333 302° West 196 226 2,100 -1,320 Descending KA90
07:30PM 42.3500 -70.9667 334° Northwest 151 174 500 -1,500 Descending KA90